Country
Station

 

Weather  for  Kramfors Flygplats  -  Sweden    Sweden

  
15 °C (59 °F)
    
 
 

Current METAR for Kramfors Flygplats is :

ESNK 201950Z AUTO 18006KT 9999 BKN010/// OVC190/// 15/14 Q1003

 

This is a report for Kramfors Flygplats - Sweden.
 
The report was made 31 minutes ago, at 19:50 UTC .
The wind was blowing at a speed of 3.1 meters per second (6.9 miles per hour) from south (180°).
 
The temperature was 15 °C (59 °F), with a dew-point at 14 °C (57 °F).
The atmospheric pressure was 1003 hPa (29.62 inHg).
The relative humidity was 93.7%.
 
The overall visibility was greater than 10 kilometers (6.2 miles).
 

 
 
 
 

Country :   A   B   C   D   E   F   G   H   I   J   K   L   M   N   O   P   Q   R   S   T   U   V   W   Y   Z

 

Site Info  |  Disclaimer  |  Credits  |  Privacy
Contact us  |  Add to favorites
© 2013-2019 METARs - All rights reserved